Latest Weather Observations for Green Cape

IDN60801

Issued at 2:04 pm EST Friday 1 July 2016 (issued every 30 minutes, with the page automatically refreshed every 10 minutes)

About weather observations | Map of weather stations | Latest weather observations for NSW | Other Formats
Station Details ID: 069137 Name: GREEN CAPE AWS Lat: -37.26 Lon: 150.05 Height: 19.4 m
Data from the previous 72 hours. | See also: Recent months at Green Cape
Date/Time
EST
Temp
°C
App
Temp
°C
Dew
Point
°C
Rel
Hum
%
Delta-T
°C
Wind Press
QNH
hPa
Press
MSL
hPa
Rain since
9am
mm
Dir  Spd
km/h
Gust
km/h
Spd
kts
Gust
kts
01/02:00pm 13.2 5.8 8.5 73 2.3 WSW 37 44 20 24 1015.2 1015.2 0.0
01/01:30pm 12.5 4.2 7.8 73 2.3 WSW 41 54 22 29 1014.9 1014.9 0.0
01/01:00pm 12.7 4.4 7.8 72 2.4 WSW 41 48 22 26 1014.9 1014.9 0.0
01/12:30pm 12.5 3.6 7.6 72 2.4 WSW 44 57 24 31 1014.7 1014.7 0.0
01/12:00pm 12.3 2.2 7.2 71 2.5 WSW 50 63 27 34 1014.5 1014.5 0.0
01/11:30am 12.3 3.2 7.0 70 2.5 WSW 44 63 24 34 1014.5 1014.5 0.0
01/11:22am 12.1 3.1 6.6 69 2.6 WSW 43 63 23 34 1014.5 1014.5 0.0
01/11:00am 11.9 2.3 6.2 68 2.7 WSW 46 57 25 31 1014.8 1014.8 0.0
01/10:30am 11.5 1.8 5.6 67 2.7 WSW 46 61 25 33 1014.7 1014.7 0.0
01/10:06am 11.1 1.8 5.2 67 2.7 WSW 43 61 23 33 1014.5 1014.5 0.0
01/10:00am 10.9 1.4 4.8 66 2.8 WSW 44 59 24 32 1014.5 1014.5 0.0
01/09:30am 10.5 2.0 5.1 69 2.5 WSW 39 54 21 29 1013.8 1013.8 0.0
01/09:00am 10.1 0.8 4.9 70 2.3 WSW 43 54 23 29 1013.4 1013.4 3.8
01/08:30am 10.1 0.6 5.1 71 2.3 WSW 44 57 24 31 1013.3 1013.3 3.8
01/08:07am 10.2 0.8 5.4 72 2.2 WSW 44 67 24 36 1012.9 1012.9 3.8
01/08:00am 10.1 2.1 5.5 73 2.1 WSW 37 50 20 27 1012.9 1012.9 3.8
01/07:30am 9.6 2.6 5.8 77 1.7 SW 32 41 17 22 1012.4 1012.4 3.6
01/07:00am 9.5 3.4 6.8 83 1.3 WSW 28 32 15 17 1011.9 1011.9 3.6
01/06:30am 9.2 3.5 6.6 84 1.2 WSW 26 35 14 19 1011.5 1011.5 3.6
01/06:00am 9.1 2.2 6.5 84 1.2 WSW 32 37 17 20 1011.2 1011.2 3.2
01/05:30am 8.9 1.4 6.3 84 1.2 WSW 35 44 19 24 1010.8 1010.8 2.8
01/05:00am 9.2 1.1 7.0 86 1.0 WSW 39 46 21 25 1010.4 1010.4 2.6
01/04:30am 8.9 0.0 6.9 87 0.9 WSW 43 52 23 28 1010.0 1010.0 2.6
01/04:00am 8.9 -0.1 7.2 89 0.8 WSW 44 61 24 33 1009.8 1009.8 2.2
01/03:30am 9.2 0.3 7.5 89 0.8 W 44 59 24 32 1009.5 1009.5 1.8
01/03:03am 8.9 2.2 7.2 89 0.8 W 32 50 17 27 1009.5 1009.5 1.2
01/03:00am 8.6 2.5 6.7 88 0.9 W 28 35 15 19 1009.6 1009.6 1.0
01/02:30am 10.0 6.9 7.3 83 1.3 W 13 20 7 11 1008.8 1008.8 0.2
01/02:00am 10.8 7.6 6.7 76 1.9 WNW 13 26 7 14 1008.4 1008.4 0.0
01/01:30am 10.3 8.3 6.3 76 1.9 WNW 6 11 3 6 1008.2 1008.2 0.0
01/01:00am 10.6 8.1 6.6 76 1.9 WNW 9 13 5 7 1008.5 1008.5 0.0
01/12:30am 11.1 9.2 6.6 74 2.1 WSW 6 15 3 8 1008.4 1008.4 0.0
01/12:00am 10.9 8.9 6.1 72 2.2 W 6 9 3 5 1008.6 1008.6 0.0
 
Date/Time
EST
Temp
°C
App
Temp
°C
Dew
Point
°C
Rel
Hum
%
Delta-T
°C
Wind Press
QNH
hPa
Press
MSL
hPa
Rain since
9am
mm
Dir  Spd
km/h
Gust
km/h
Spd
kts
Gust
kts
30/11:30pm 10.8 8.6 6.2 73 2.1 WNW 7 9 4 5 1008.9 1008.9 0.0
30/11:00pm 11.7 9.5 6.4 70 2.5 W 7 11 4 6 1009.0 1009.0 0.0
30/10:30pm 11.8 8.8 4.3 60 3.4 N 9 13 5 7 1009.0 1009.0 0.0
30/10:00pm 12.0 8.3 2.5 52 4.1 NNW 11 15 6 8 1009.1 1009.1 0.0
30/09:30pm 11.6 9.0 4.1 60 3.4 WNW 7 9 4 5 1009.2 1009.2 0.0
30/09:00pm 12.0 8.9 3.5 56 3.8 NNW 9 17 5 9 1009.0 1009.0 0.0
30/08:30pm 12.5 7.9 3.7 55 3.9 N 17 24 9 13 1009.0 1009.0 0.0
30/08:00pm 12.7 7.2 4.2 56 3.9 N 22 28 12 15 1009.0 1009.0 0.0
30/07:30pm 13.4 5.4 5.8 60 3.6 N 37 46 20 25 1008.6 1008.6 0.0
30/07:00pm 13.5 6.4 5.7 59 3.7 N 32 41 17 22 1008.8 1008.8 0.0
30/06:51pm 13.6 7.9 5.0 56 4.0 N 24 41 13 22 1008.5 1008.5 0.0
30/06:30pm 12.7 8.8 3.6 54 4.1 N 13 19 7 10 1008.9 1008.9 0.0
30/06:00pm 12.8 10.0 3.2 52 4.3 N 7 13 4 7 1009.2 1009.2 0.0
30/05:30pm 13.1 9.9 2.9 50 4.5 NNW 9 15 5 8 1009.0 1009.0 0.0
30/05:00pm 13.8 7.9 3.9 51 4.5 NNW 24 39 13 21 1008.1 1008.1 0.0
30/04:30pm 13.3 9.6 4.2 54 4.1 NNW 13 20 7 11 1008.5 1008.5 0.0
30/04:00pm 13.7 9.6 6.3 61 3.5 NNW 17 28 9 15 1008.8 1008.8 0.0
30/03:30pm 12.9 9.1 5.8 62 3.3 N 15 19 8 10 1009.4 1009.4 0.0
30/03:00pm 13.1 9.0 4.5 56 3.9 N 15 19 8 10 1009.6 1009.6 0.0
30/02:30pm 12.8 9.9 4.8 58 3.7 N 9 19 5 10 1009.8 1009.8 0.0
30/02:00pm 12.8 9.3 3.7 54 4.1 NNW 11 15 6 8 1010.2 1010.2 0.0
30/01:30pm 12.8 8.7 2.4 49 4.5 NNW 13 22 7 12 1010.6 1010.6 0.0
30/01:00pm 12.9 8.5 2.5 49 4.6 NNW 15 22 8 12 1011.3 1011.3 0.0
30/12:30pm 12.7 8.1 3.9 55 4.0 N 17 20 9 11 1011.8 1011.8 0.0
30/12:00pm 12.8 8.6 4.0 55 4.0 N 15 22 8 12 1012.7 1012.7 0.0
30/11:30am 12.6 9.6 4.1 56 3.8 NW 9 11 5 6 1013.3 1013.3 0.0
30/11:00am 12.6 9.3 4.6 58 3.7 NNW 11 15 6 8 1013.8 1013.8 0.0
30/10:30am 12.6 9.4 5.1 60 3.5 NNW 11 15 6 8 1014.3 1014.3 0.0
30/10:00am 12.8 10.0 5.2 60 3.5 NNW 9 13 5 7 1014.8 1014.8 0.0
30/09:30am 13.5 7.1 6.8 64 3.2 N 30 35 16 19 1014.6 1014.6 0.0
30/09:00am 12.8 8.3 6.8 67 2.9 N 20 28 11 15 1015.0 1015.0 0.0
30/08:30am 12.2 8.1 6.0 66 2.9 N 17 20 9 11 1015.5 1015.5 0.0
30/08:00am 11.8 7.6 5.9 67 2.8 N 17 22 9 12 1015.9 1015.9 0.0
30/07:30am 11.5 7.3 5.8 68 2.7 N 17 24 9 13 1016.1 1016.1 0.0
30/07:00am 11.8 6.6 5.7 66 2.8 N 22 28 12 15 1016.2 1016.2 0.0
30/06:30am 11.9 7.3 6.6 70 2.5 N 20 28 11 15 1016.5 1016.5 0.0
30/06:00am 12.2 7.0 7.3 72 2.4 N 24 32 13 17 1016.4 1016.4 0.0
30/05:30am 12.7 7.0 8.2 74 2.2 N 28 35 15 19 1016.4 1016.4 0.0
30/05:00am 13.2 7.2 8.7 74 2.3 N 30 35 16 19 1016.5 1016.5 0.0
30/04:30am 13.6 6.8 9.1 74 2.3 N 35 44 19 24 1016.5 1016.5 0.0
30/04:00am 14.1 5.8 9.5 74 2.4 N 43 48 23 26 1016.6 1016.6 0.0
30/03:30am 14.2 5.4 9.6 74 2.4 N 46 56 25 30 1017.0 1017.0 0.0
30/03:00am 14.2 4.9 9.2 72 2.5 N 48 57 26 31 1017.4 1017.4 0.0
30/02:30am 14.3 5.8 9.3 72 2.6 N 44 54 24 29 1018.0 1018.0 0.0
30/02:00am 14.2 6.0 9.6 74 2.4 N 43 48 23 26 1018.6 1018.6 0.0
30/01:30am 14.4 7.5 10.2 76 2.2 N 37 44 20 24 1019.4 1019.4 0.0
30/01:00am 14.4 6.8 10.6 78 2.0 N 41 46 22 25 1019.5 1019.5 0.0
30/12:30am 14.5 7.4 10.9 79 1.9 N 39 46 21 25 1019.9 1019.9 0.0
30/12:00am 14.6 7.0 10.6 77 2.1 N 41 46 22 25 1020.4 1020.4 0.0
 
Date/Time
EST
Temp
°C
App
Temp
°C
Dew
Point
°C
Rel
Hum
%
Delta-T
°C
Wind Press
QNH
hPa
Press
MSL
hPa
Rain since
9am
mm
Dir  Spd
km/h
Gust
km/h
Spd
kts
Gust
kts
29/11:47pm 14.5 7.7 10.7 78 2.0 N 37 46 20 25 1020.6 1020.6 0.0
29/11:30pm 13.9 10.1 9.7 76 2.2 N 20 28 11 15 1021.2 1021.2 0.0
29/11:00pm 13.5 9.2 9.4 76 2.1 N 22 26 12 14 1021.8 1021.8 0.0
29/10:30pm 13.6 10.2 9.3 75 2.2 N 17 22 9 12 1022.2 1022.2 0.0
29/10:00pm 15.3 9.4 10.5 73 2.5 NNE 32 37 17 20 1022.3 1022.3 0.0
29/09:30pm 14.8 10.5 10.8 77 2.1 NNE 24 32 13 17 1023.0 1023.0 0.0
29/09:00pm 12.1 11.8 10.2 88 1.0 E 2 9 1 5 1023.3 1023.3 0.0
29/08:30pm 12.2 11.0 10.3 88 1.0 W 7 9 4 5 1023.7 1023.7 0.0
29/08:00pm 12.2 11.2 10.3 88 1.0 W 6 7 3 4 1024.0 1024.0 0.0
29/07:30pm 12.7 11.7 10.4 86 1.2 WSW 6 6 3 3 1024.2 1024.2 0.0
29/07:00pm 13.2 12.0 9.6 79 1.8 W 6 7 3 4 1024.5 1024.5 0.0
29/06:30pm 13.5 11.6 9.2 75 2.2 SSE 9 11 5 6 1024.4 1024.4 0.0
29/06:00pm 13.6 11.4 9.3 75 2.2 SSE 11 13 6 7 1024.3 1024.3 0.0
29/05:30pm 14.0 11.8 9.4 74 2.4 SSE 11 13 6 7 1024.4 1024.4 0.0
29/05:00pm 14.0 11.0 9.2 73 2.4 SSE 15 17 8 9 1024.3 1024.3 0.0
29/04:30pm 14.1 12.7 8.7 70 2.7 SE 6 7 3 4 1024.6 1024.6 0.0
29/04:00pm 14.9 12.9 8.8 67 3.1 SE 9 11 5 6 1024.7 1024.7 0.0
29/03:30pm 15.4 12.9 8.4 63 3.5 SE 11 13 6 7 1024.6 1024.6 0.0
29/03:00pm 17.3 16.3 8.7 57 4.4 ESE 4 7 2 4 1024.5 1024.5 0.0
29/02:30pm 16.9 15.9 7.5 54 4.7 ENE 2 6 1 3 1024.6 1024.6 0.0
29/02:00pm 16.9 15.9 7.5 54 4.7 E 2 6 1 3 1024.6 1024.6 0.0
29/01:30pm 16.8 16.3 7.7 55 4.6 CALM 0 0 0 0 1024.8 1024.8 0.0
29/01:00pm 16.6 15.6 7.5 55 4.5 W 2 6 1 3 1025.1 1025.1 0.0
29/12:30pm 15.7 13.0 7.2 57 4.2 W 11 13 6 7 1025.5 1025.5 0.0
29/12:00pm 15.3 12.8 8.1 62 3.6 WNW 11 15 6 8 1025.8 1025.8 0.0
29/11:30am 14.6 11.7 8.3 66 3.2 WNW 13 15 7 8 1026.3 1026.3 0.0
29/11:00am 13.8 10.9 8.0 68 2.9 WNW 13 15 7 8 1026.7 1026.7 0.0
29/10:30am 12.8 9.0 7.7 71 2.5 W 17 19 9 10 1027.0 1027.0 0.0
29/10:00am 11.8 7.9 6.9 72 2.3 W 17 20 9 11 1027.1 1027.1 0.0
29/09:30am 10.9 6.5 6.6 75 2.0 WNW 19 20 10 11 1027.0 1027.0 0.0
29/09:00am 9.9 6.2 6.1 77 1.7 W 15 19 8 10 1026.9 1026.9 0.0
29/08:30am 9.7 6.9 6.8 82 1.4 W 11 13 6 7 1026.9 1026.9 0.0
29/08:00am 9.2 6.6 6.3 82 1.3 W 9 13 5 7 1026.7 1026.7 0.0
29/07:30am 8.9 5.6 6.2 83 1.2 W 13 15 7 8 1026.3 1026.3 0.0
29/07:00am 9.0 5.3 6.1 82 1.3 W 15 17 8 9 1026.1 1026.1 0.0
29/06:30am 9.1 6.0 5.7 79 1.5 W 11 15 6 8 1025.9 1025.9 0.0
29/06:00am 9.3 5.5 6.0 80 1.5 W 15 17 8 9 1025.7 1025.7 0.0
29/05:30am 9.4 5.7 6.3 81 1.4 W 15 17 8 9 1025.5 1025.5 0.0
29/05:00am 9.4 4.8 5.8 78 1.6 W 19 22 10 12 1025.2 1025.2 0.0
29/04:30am 9.3 5.3 5.1 75 1.9 WNW 15 20 8 11 1025.0 1025.0 0.0
29/04:00am 8.7 6.7 4.3 74 1.9 NNW 4 9 2 5 1025.1 1025.1 0.0
29/03:30am 9.0 5.9 5.4 78 1.6 WNW 11 13 6 7 1025.2 1025.2 0.0
29/03:00am 9.3 6.1 4.9 74 2.0 W 11 15 6 8 1025.2 1025.2 0.0
29/02:30am 9.6 6.0 5.2 74 2.0 WNW 13 17 7 9 1025.1 1025.1 0.0
29/02:00am 9.3 5.4 5.3 76 1.8 WNW 15 20 8 11 1025.2 1025.2 0.0
29/01:30am 10.2 5.9 5.4 72 2.2 WNW 17 22 9 12 1025.1 1025.1 0.0
29/01:00am 10.9 6.7 5.9 71 2.3 WNW 17 22 9 12 1025.0 1025.0 0.0
29/12:30am 10.5 6.7 5.9 73 2.1 WNW 15 20 8 11 1025.1 1025.1 0.0
29/12:00am 10.4 7.0 5.8 73 2.1 WNW 13 20 7 11 1025.2 1025.2 0.0
 
Date/Time
EST
Temp
°C
App
Temp
°C
Dew
Point
°C
Rel
Hum
%
Delta-T
°C
Wind Press
QNH
hPa
Press
MSL
hPa
Rain since
9am
mm
Dir  Spd
km/h
Gust
km/h
Spd
kts
Gust
kts
28/11:30pm 10.8 6.1 6.0 72 2.2 WNW 20 24 11 13 1025.3 1025.3 0.0
28/11:00pm 10.9 7.6 6.3 73 2.1 WNW 13 17 7 9 1025.3 1025.3 0.0
28/10:30pm 10.2 6.7 7.3 82 1.4 W 15 19 8 10 1025.2 1025.2 0.0
28/10:00pm 10.4 7.1 8.0 85 1.2 W 15 19 8 10 1025.2 1025.2 0.0
28/09:30pm 10.4 7.1 8.0 85 1.2 WNW 15 19 8 10 1025.1 1025.1 0.0
28/09:00pm 10.6 7.7 8.0 84 1.3 WNW 13 15 7 8 1025.0 1025.0 0.0
28/08:30pm 11.0 8.5 8.4 84 1.3 WNW 11 15 6 8 1024.9 1024.9 0.0
28/08:00pm 11.3 8.5 8.5 83 1.4 WNW 13 17 7 9 1024.7 1024.7 0.0
28/07:30pm 11.7 9.5 7.8 77 1.9 WNW 9 11 5 6 1024.5 1024.5 0.0
28/07:00pm 12.3 10.6 7.6 73 2.3 W 6 7 3 4 1024.3 1024.3 0.0
28/06:30pm 12.6 10.7 6.6 67 2.9 WNW 6 7 3 4 1024.0 1024.0 0.0
28/06:00pm 12.6 10.4 6.4 66 2.9 WNW 7 9 4 5 1023.9 1023.9 0.0
28/05:30pm 13.7 11.8 7.5 66 3.0 W 7 11 4 6 1023.5 1023.5 0.0
28/05:00pm 14.1 11.1 7.9 66 3.1 SW 13 15 7 8 1023.3 1023.3 0.0
28/04:30pm 14.7 10.3 7.5 62 3.6 WSW 20 24 11 13 1023.1 1023.1 0.0
28/04:00pm 14.9 10.5 7.2 60 3.8 WSW 20 26 11 14 1022.9 1022.9 0.0
28/03:30pm 15.1 10.9 7.4 60 3.8 WSW 19 22 10 12 1022.5 1022.5 0.0
28/03:00pm 15.3 10.3 6.6 56 4.2 WSW 22 28 12 15 1022.3 1022.3 0.0
28/02:30pm 15.2 10.7 7.0 58 4.0 WSW 20 26 11 14 1022.1 1022.1 0.0

Other Formats:

Comma delimited format used in spreadsheet applications
http://www.bom.gov.au/fwo/IDN60801/IDN60801.94934.axf

JavaScript Object Notation format (JSON) in row-major order
http://www.bom.gov.au/fwo/IDN60801/IDN60801.94934.json